createdAt,value
2018-06-02T00:01:06.326Z,91.50
2018-06-02T00:04:09.629Z,91.60
2018-06-02T00:07:12.933Z,91.10
2018-06-02T00:10:16.350Z,91.10
2018-06-02T00:13:19.621Z,91.30
2018-06-02T00:16:23.416Z,91.30
2018-06-02T00:19:26.829Z,91.50
2018-06-02T00:22:32.764Z,91.40
2018-06-02T00:25:36.032Z,91.70
2018-06-02T00:28:39.351Z,91.70
2018-06-02T00:31:42.916Z,91.80
2018-06-02T00:34:47.374Z,91.40
2018-06-02T00:37:50.729Z,91.80
2018-06-02T00:40:54.040Z,91.60
2018-06-02T00:44:01.776Z,91.90
2018-06-02T00:47:05.118Z,92.10
2018-06-02T00:50:08.458Z,92.30
2018-06-02T00:53:13.588Z,92.20
2018-06-02T00:56:16.905Z,92.20
2018-06-02T00:59:20.228Z,92.40
2018-06-02T01:02:23.551Z,92.70
2018-06-02T01:05:27.642Z,93.10
2018-06-02T01:08:31.288Z,93.30
2018-06-02T01:11:34.566Z,93.10
2018-06-02T01:14:37.903Z,93.10
2018-06-02T01:17:41.848Z,93.10
2018-06-02T01:20:45.169Z,93.20
2018-06-02T01:23:48.521Z,93.30
2018-06-02T01:26:52.324Z,93.80
2018-06-02T01:29:55.658Z,93.70
2018-06-02T01:32:59.808Z,93.60
2018-06-02T01:36:03.140Z,93.80
2018-06-02T01:39:06.921Z,93.90
2018-06-02T01:42:10.241Z,94.10
2018-06-02T01:45:13.650Z,94.10
2018-06-02T01:48:17.067Z,93.80
2018-06-02T01:51:21.151Z,94.30
2018-06-02T01:54:24.561Z,94.00
2018-06-02T01:57:29.435Z,94.10
2018-06-02T02:00:32.767Z,95.00
2018-06-02T02:03:36.725Z,94.30
2018-06-02T02:06:40.816Z,94.40
2018-06-02T02:09:45.288Z,94.50
2018-06-02T02:12:48.627Z,94.20
2018-06-02T02:15:52.563Z,94.60
2018-06-02T02:18:55.916Z,94.80
2018-06-02T02:21:59.317Z,94.80
2018-06-02T02:25:02.631Z,94.50
2018-06-02T02:28:05.981Z,94.70
2018-06-02T02:31:09.296Z,94.70
2018-06-02T02:34:12.634Z,94.60
2018-06-02T02:37:15.953Z,94.60
2018-06-02T02:40:20.812Z,94.20
2018-06-02T02:43:24.171Z,94.10
2018-06-02T02:46:28.340Z,94.30
2018-06-02T02:49:32.629Z,94.30
2018-06-02T02:52:36.716Z,94.50
2018-06-02T02:55:40.807Z,94.40
2018-06-02T02:58:44.223Z,94.40
2018-06-02T03:01:49.606Z,94.10
2018-06-02T03:04:52.955Z,94.40
2018-06-02T03:07:56.288Z,94.70
2018-06-02T03:10:59.606Z,94.60
2018-06-02T03:14:02.961Z,94.60
2018-06-02T03:17:07.157Z,95.00
2018-06-02T03:20:12.041Z,94.90
2018-06-02T03:23:15.385Z,95.00
2018-06-02T03:26:18.693Z,94.70
2018-06-02T03:29:22.634Z,94.20
2018-06-02T03:32:25.973Z,94.00
2018-06-02T03:35:29.288Z,93.20
2018-06-02T03:38:32.749Z,92.40
2018-06-02T03:41:36.171Z,92.10
2018-06-02T03:44:40.773Z,90.90
2018-06-02T03:47:44.109Z,90.50
2018-06-02T03:50:47.480Z,90.00
2018-06-02T03:53:50.787Z,89.70
2018-06-02T03:56:54.171Z,90.70
2018-06-02T04:00:00.807Z,88.80
2018-06-02T04:03:04.149Z,89.20
2018-06-02T04:06:07.479Z,89.30
2018-06-02T04:09:11.572Z,90.10
2018-06-02T04:12:14.903Z,90.10
2018-06-02T04:15:18.192Z,90.60
2018-06-02T04:18:21.535Z,90.80
2018-06-02T04:21:24.945Z,91.10
2018-06-02T04:24:28.270Z,91.30
2018-06-02T04:27:32.621Z,91.40
2018-06-02T04:30:35.947Z,91.70
2018-06-02T04:33:39.360Z,91.60
2018-06-02T04:36:43.557Z,91.90
2018-06-02T04:39:46.897Z,92.40
2018-06-02T04:42:51.010Z,92.10
2018-06-02T04:45:55.992Z,91.60
2018-06-02T04:48:59.296Z,91.50
2018-06-02T04:52:02.596Z,91.50
2018-06-02T04:55:05.911Z,91.20
2018-06-02T04:58:12.362Z,91.00
2018-06-02T05:01:15.723Z,91.20
2018-06-02T05:04:19.093Z,91.40
2018-06-02T05:07:25.507Z,91.40
2018-06-02T05:10:28.829Z,91.50
2018-06-02T05:13:32.148Z,91.10
2018-06-02T05:16:42.211Z,90.10
2018-06-02T05:19:46.305Z,88.30
2018-06-02T05:22:51.435Z,88.30
2018-06-02T05:25:54.767Z,88.90
2018-06-02T05:28:58.854Z,88.30
2018-06-02T05:32:03.036Z,88.30
2018-06-02T05:35:06.371Z,87.50
2018-06-02T05:38:09.705Z,86.20
2018-06-02T05:41:13.023Z,85.30
2018-06-02T05:44:16.354Z,83.80
2018-06-02T05:47:19.727Z,83.80
2018-06-02T05:50:23.848Z,83.70
2018-06-02T05:53:27.176Z,82.40
2018-06-02T05:56:31.311Z,82.20
2018-06-02T05:59:34.584Z,82.20
2018-06-02T06:02:37.971Z,82.20
2018-06-02T06:05:41.289Z,81.30
2018-06-02T06:08:46.123Z,79.10
2018-06-02T06:11:50.911Z,80.00
2018-06-02T06:14:54.229Z,79.90
2018-06-02T06:18:00.013Z,79.90
2018-06-02T06:21:03.343Z,79.40
2018-06-02T06:24:06.659Z,79.90
2018-06-02T06:27:10.050Z,79.40
2018-06-02T06:30:13.384Z,80.30
2018-06-02T06:33:17.480Z,77.90
2018-06-02T06:36:20.826Z,77.90
2018-06-02T06:39:24.142Z,77.50
2018-06-02T06:42:27.627Z,76.40
2018-06-02T06:45:31.050Z,75.70
2018-06-02T06:48:34.441Z,75.10
2018-06-02T06:51:37.855Z,75.20
2018-06-02T06:54:41.236Z,74.40
2018-06-02T06:57:45.187Z,73.60
2018-06-02T07:00:49.296Z,72.40
2018-06-02T07:03:53.375Z,72.50
2018-06-02T07:06:58.554Z,72.50
2018-06-02T07:10:02.669Z,70.50
2018-06-02T07:13:06.757Z,70.60
2018-06-02T07:16:12.056Z,70.60
2018-06-02T07:19:15.382Z,72.40
2018-06-02T07:22:19.881Z,70.30
2018-06-02T07:25:23.318Z,69.30
2018-06-02T07:28:26.709Z,68.50
2018-06-02T07:31:30.018Z,69.20
2018-06-02T07:34:34.388Z,67.10
2018-06-02T07:37:37.734Z,66.20
2018-06-02T07:40:41.040Z,64.20
2018-06-02T07:43:44.422Z,64.30
2018-06-02T07:46:47.801Z,63.40
2018-06-02T07:49:51.977Z,62.60
2018-06-02T07:52:55.309Z,62.90
2018-06-02T07:56:01.760Z,62.50
2018-06-02T07:59:05.111Z,62.70
2018-06-02T08:02:08.420Z,62.00
2018-06-02T08:05:11.757Z,62.40
2018-06-02T08:08:15.205Z,62.40
2018-06-02T08:11:18.494Z,62.10
2018-06-02T08:14:22.602Z,61.00
2018-06-02T08:17:26.328Z,61.30
2018-06-02T08:20:30.516Z,60.00
2018-06-02T08:23:33.874Z,60.50
2018-06-02T08:26:37.189Z,58.00
2018-06-02T08:29:40.510Z,58.10
2018-06-02T08:32:44.897Z,55.10
2018-06-02T08:35:48.646Z,57.50
2018-06-02T08:38:51.982Z,57.50
2018-06-02T08:41:55.421Z,55.90
2018-06-02T08:44:59.893Z,56.90
2018-06-02T08:48:03.238Z,58.00
2018-06-02T08:51:07.152Z,57.50
2018-06-02T08:54:10.505Z,58.60
2018-06-02T08:57:13.819Z,59.30
2018-06-02T09:00:17.125Z,59.10
2018-06-02T09:03:21.336Z,59.70
2018-06-02T09:06:24.810Z,60.30
2018-06-02T09:09:28.124Z,60.80
2018-06-02T09:12:31.916Z,61.20
2018-06-02T09:15:35.774Z,62.10
2018-06-02T09:18:39.175Z,63.10
2018-06-02T09:21:42.529Z,64.30
2018-06-02T09:24:46.509Z,63.50
2018-06-02T09:27:50.760Z,61.50
2018-06-02T09:30:54.912Z,63.60
2018-06-02T09:33:58.330Z,62.80
2018-06-02T09:37:02.954Z,61.30
2018-06-02T09:40:07.074Z,60.70
2018-06-02T09:43:11.951Z,60.40
2018-06-02T09:46:15.290Z,61.10
2018-06-02T09:49:19.718Z,62.50
2018-06-02T09:52:23.042Z,62.70
2018-06-02T09:55:29.471Z,62.30
2018-06-02T09:58:33.585Z,61.30
2018-06-02T10:01:37.774Z,61.40
2018-06-02T10:04:41.092Z,62.30
2018-06-02T10:07:44.500Z,61.30
2018-06-02T10:10:47.878Z,61.30
2018-06-02T10:13:51.221Z,61.00
2018-06-02T10:16:55.345Z,60.20
2018-06-02T10:19:58.661Z,60.30
2018-06-02T10:23:02.189Z,61.80
2018-06-02T10:26:05.588Z,60.90
2018-06-02T10:29:08.907Z,60.80
2018-06-02T10:32:13.098Z,60.40
2018-06-02T10:35:16.450Z,60.90
2018-06-02T10:38:19.853Z,59.70
2018-06-02T10:41:29.071Z,59.20
2018-06-02T10:44:32.407Z,56.80
2018-06-02T10:47:35.810Z,57.30
2018-06-02T10:50:39.232Z,58.30
2018-06-02T10:53:42.551Z,58.90
2018-06-02T10:56:48.997Z,56.60
2018-06-02T10:59:52.327Z,56.40
2018-06-02T11:02:56.411Z,54.50
2018-06-02T11:05:59.788Z,54.40
2018-06-02T11:09:03.150Z,54.20
2018-06-02T11:12:07.229Z,50.20
2018-06-02T11:15:10.702Z,50.10
2018-06-02T11:18:14.028Z,50.10
2018-06-02T11:21:18.121Z,46.40
2018-06-02T11:24:21.446Z,46.30
2018-06-02T11:27:25.533Z,48.90
2018-06-02T11:30:29.668Z,47.60
2018-06-02T11:33:33.797Z,44.40
2018-06-02T11:36:37.892Z,45.00
2018-06-02T11:39:41.238Z,45.00
2018-06-02T11:42:44.569Z,44.90
2018-06-02T11:45:47.917Z,44.20
2018-06-02T11:48:51.313Z,44.20
2018-06-02T11:51:54.780Z,42.70
2018-06-02T11:54:58.223Z,41.10
2018-06-02T11:58:01.553Z,41.00
2018-06-02T12:01:05.601Z,42.70
2018-06-02T12:04:08.889Z,44.70
2018-06-02T12:07:13.070Z,47.10
2018-06-02T12:10:16.505Z,47.20
2018-06-02T12:13:20.573Z,47.00
2018-06-02T12:16:24.216Z,47.00
2018-06-02T12:19:28.380Z,46.90
2018-06-02T12:22:31.709Z,46.80
2018-06-02T12:25:35.130Z,47.20
2018-06-02T12:28:40.012Z,48.20
2018-06-02T12:31:43.439Z,48.30
2018-06-02T12:34:47.598Z,46.70
2018-06-02T12:37:50.960Z,47.00
2018-06-02T12:40:55.834Z,46.40
2018-06-02T12:43:59.155Z,47.30
2018-06-02T12:47:02.492Z,46.70
2018-06-02T12:50:05.829Z,45.60
2018-06-02T12:53:10.394Z,45.60
2018-06-02T12:56:13.762Z,45.10
2018-06-02T12:59:17.113Z,45.80
2018-06-02T13:02:21.196Z,45.70
2018-06-02T13:05:24.605Z,45.70
2018-06-02T13:08:28.466Z,45.30
2018-06-02T13:11:31.793Z,45.30
2018-06-02T13:14:35.246Z,45.00
2018-06-02T13:17:38.569Z,45.50
2018-06-02T13:20:43.360Z,44.40
2018-06-02T13:23:47.956Z,44.40
2018-06-02T13:26:51.304Z,44.40
2018-06-02T13:29:54.620Z,45.50
2018-06-02T13:32:57.932Z,45.20
2018-06-02T13:36:01.265Z,44.70
2018-06-02T13:39:04.542Z,44.90
2018-06-02T13:42:08.670Z,45.30
2018-06-02T13:45:13.549Z,44.90
2018-06-02T13:48:16.874Z,44.80
2018-06-02T13:51:21.294Z,44.60
2018-06-02T13:54:24.616Z,43.50
2018-06-02T13:57:28.711Z,43.10
2018-06-02T14:00:33.277Z,43.10
2018-06-02T14:03:36.621Z,44.10
2018-06-02T14:06:39.947Z,44.60
2018-06-02T14:09:43.295Z,44.80
2018-06-02T14:12:46.635Z,44.50
2018-06-02T14:15:49.963Z,44.10
2018-06-02T14:18:54.586Z,43.60
2018-06-02T14:21:58.693Z,44.60
2018-06-02T14:25:02.797Z,44.40
2018-06-02T14:28:06.198Z,44.40
2018-06-02T14:31:10.283Z,42.20
2018-06-02T14:34:13.600Z,41.50
2018-06-02T14:37:16.925Z,43.10
2018-06-02T14:40:20.253Z,42.90
2018-06-02T14:43:24.386Z,42.90
2018-06-02T14:46:27.706Z,45.00
2018-06-02T14:49:31.025Z,44.90
2018-06-02T14:52:35.101Z,42.90
2018-06-02T14:55:41.732Z,42.80
2018-06-02T14:58:45.974Z,43.30
2018-06-02T15:01:49.331Z,42.50
2018-06-02T15:04:53.177Z,43.30
2018-06-02T15:07:56.529Z,43.60
2018-06-02T15:11:00.610Z,42.70
2018-06-02T15:14:03.940Z,42.80
2018-06-02T15:17:08.040Z,42.10
2018-06-02T15:20:11.312Z,42.10
2018-06-02T15:23:15.417Z,42.20
2018-06-02T15:26:21.714Z,42.10
2018-06-02T15:29:25.827Z,44.30
2018-06-02T15:32:29.956Z,42.10
2018-06-02T15:35:34.364Z,50.30
2018-06-02T15:38:38.465Z,56.70
2018-06-02T15:41:41.820Z,57.00
2018-06-02T15:44:45.250Z,56.50
2018-06-02T15:47:48.593Z,58.00
2018-06-02T15:50:52.547Z,58.30
2018-06-02T15:53:55.874Z,58.40
2018-06-02T15:57:00.934Z,58.00
2018-06-02T16:00:04.313Z,58.40
2018-06-02T16:03:08.401Z,58.90
2018-06-02T16:06:11.725Z,58.80
2018-06-02T16:09:15.286Z,59.20
2018-06-02T16:12:18.713Z,58.90
2018-06-02T16:15:22.131Z,58.50
2018-06-02T16:18:26.257Z,57.60
2018-06-02T16:21:29.581Z,57.50
2018-06-02T16:24:35.585Z,58.20
2018-06-02T16:27:39.682Z,57.00
2018-06-02T16:30:44.946Z,57.00
2018-06-02T16:33:48.284Z,56.80
2018-06-02T16:36:51.625Z,56.70
2018-06-02T16:39:56.551Z,57.20
2018-06-02T16:43:00.317Z,58.10
2018-06-02T16:46:03.663Z,57.70
2018-06-02T16:49:07.009Z,57.50
2018-06-02T16:52:10.812Z,57.20
2018-06-02T16:55:14.671Z,57.00
2018-06-02T16:58:19.271Z,57.10
2018-06-02T17:01:23.436Z,57.80
2018-06-02T17:04:27.551Z,58.30
2018-06-02T17:07:31.652Z,58.30
2018-06-02T17:10:34.989Z,58.30
2018-06-02T17:13:38.275Z,58.10
2018-06-02T17:16:41.631Z,58.20
2018-06-02T17:19:45.428Z,60.60
2018-06-02T17:22:48.739Z,64.20
2018-06-02T17:25:52.229Z,65.80
2018-06-02T17:28:55.550Z,66.80
2018-06-02T17:31:58.879Z,68.40
2018-06-02T17:35:03.917Z,69.30
2018-06-02T17:38:07.364Z,70.90
2018-06-02T17:41:11.432Z,71.80
2018-06-02T17:44:14.773Z,71.30
2018-06-02T17:47:18.135Z,72.30
2018-06-02T17:50:21.462Z,74.30
2018-06-02T17:53:24.787Z,74.00
2018-06-02T17:56:29.825Z,75.40
2018-06-02T17:59:33.921Z,75.30
2018-06-02T18:02:37.321Z,75.20
2018-06-02T18:05:50.833Z,75.90
2018-06-02T18:08:54.241Z,76.60
2018-06-02T18:11:57.793Z,77.50
2018-06-02T18:15:05.069Z,77.40
2018-06-02T18:18:08.605Z,77.60
2018-06-02T18:21:11.931Z,78.40
2018-06-02T18:24:15.270Z,79.50
2018-06-02T18:27:18.943Z,79.80
2018-06-02T18:30:24.170Z,80.90
2018-06-02T18:33:27.513Z,81.10
2018-06-02T18:36:37.156Z,81.80
2018-06-02T18:39:40.481Z,82.50
2018-06-02T18:42:43.817Z,83.40
2018-06-02T18:45:48.516Z,83.10
2018-06-02T18:48:51.854Z,83.80
2018-06-02T18:51:55.990Z,84.40
2018-06-02T18:55:04.036Z,84.40
2018-06-02T18:58:07.378Z,84.40
2018-06-02T19:01:13.326Z,85.40
2018-06-02T19:04:17.430Z,86.40
2018-06-02T19:07:20.808Z,86.40
2018-06-02T19:10:24.213Z,86.60
2018-06-02T19:13:27.561Z,86.70
2018-06-02T19:16:33.185Z,87.40
2018-06-02T19:19:37.287Z,88.50
2018-06-02T19:22:40.639Z,87.70
2018-06-02T19:25:43.969Z,88.40
2018-06-02T19:28:49.219Z,89.40
2018-06-02T19:31:52.556Z,89.90
2018-06-02T19:34:58.783Z,90.40
2018-06-02T19:38:02.134Z,90.20
2018-06-02T19:41:05.446Z,90.30
2018-06-02T19:44:08.785Z,90.40
2018-06-02T19:47:13.711Z,91.30
2018-06-02T19:50:17.839Z,91.10
2018-06-02T19:53:23.443Z,91.30
2018-06-02T19:56:26.855Z,91.30
2018-06-02T19:59:30.306Z,91.50
2018-06-02T20:02:33.671Z,91.80
2018-06-02T20:05:39.178Z,91.70
2018-06-02T20:08:42.515Z,91.60
2018-06-02T20:11:46.043Z,91.40
2018-06-02T20:14:49.421Z,91.90
2018-06-02T20:17:52.724Z,91.60
2018-06-02T20:20:57.780Z,91.60
2018-06-02T20:24:01.118Z,91.30
2018-06-02T20:27:06.497Z,91.50
2018-06-02T20:43:09.857Z,91.80
2018-06-02T20:46:13.445Z,92.40
2018-06-02T20:49:16.838Z,92.20
2018-06-02T20:52:20.250Z,92.20
2018-06-02T20:55:23.734Z,92.20
2018-06-02T20:58:27.142Z,92.20
2018-06-02T21:01:30.535Z,92.10
2018-06-02T21:04:33.896Z,92.20
2018-06-02T21:07:37.381Z,92.10
2018-06-02T21:10:40.767Z,92.30
2018-06-02T21:13:45.919Z,92.10
2018-06-02T21:16:49.362Z,92.40
2018-06-02T21:19:52.725Z,92.20
2018-06-02T21:22:56.818Z,92.10
2018-06-02T21:26:00.160Z,92.10
2018-06-02T21:29:03.937Z,92.10
2018-06-02T21:32:07.282Z,92.20
2018-06-02T21:35:10.634Z,91.90
2018-06-02T21:38:14.822Z,91.90
2018-06-02T21:41:18.991Z,91.80
2018-06-02T21:44:22.350Z,91.90
2018-06-02T21:47:25.830Z,91.90
2018-06-02T21:50:30.073Z,91.90
2018-06-02T21:53:33.422Z,91.90
2018-06-02T21:56:38.434Z,91.90
2018-06-02T21:59:41.787Z,92.00
2018-06-02T22:02:45.903Z,91.80
2018-06-02T22:05:50.996Z,91.90
2018-06-02T22:08:54.372Z,92.20
2018-06-02T22:11:58.946Z,91.90
2018-06-02T22:15:02.272Z,92.20
2018-06-02T22:18:05.719Z,92.40
2018-06-02T22:21:09.616Z,92.20
2018-06-02T22:24:13.021Z,92.30
2018-06-02T22:27:16.368Z,92.20
2018-06-02T22:30:19.738Z,92.40
2018-06-02T22:33:23.065Z,92.60
2018-06-02T22:36:26.418Z,92.60
2018-06-02T22:39:30.134Z,93.00
2018-06-02T22:42:34.063Z,93.30
2018-06-02T22:45:38.357Z,92.90
2018-06-02T22:48:42.788Z,93.10
2018-06-02T22:51:58.362Z,93.40
2018-06-02T22:55:01.703Z,92.90
2018-06-02T22:58:05.170Z,93.20
2018-06-02T23:01:11.505Z,93.20
2018-06-02T23:04:15.602Z,93.50
2018-06-02T23:07:18.944Z,93.30
2018-06-02T23:10:22.272Z,93.50
2018-06-02T23:13:27.410Z,93.70
2018-06-02T23:16:30.738Z,93.70
2018-06-02T23:19:34.066Z,93.90
2018-06-02T23:22:41.194Z,93.90
2018-06-02T23:25:45.012Z,94.10
2018-06-02T23:28:48.351Z,94.20
2018-06-02T23:31:51.672Z,94.30
2018-06-02T23:34:56.339Z,94.80
2018-06-02T23:37:59.762Z,95.00
2018-06-02T23:41:03.065Z,94.70
2018-06-02T23:44:07.177Z,94.60
2018-06-02T23:47:10.502Z,94.60
2018-06-02T23:50:15.330Z,94.70
2018-06-02T23:53:19.418Z,94.70
2018-06-02T23:56:22.777Z,94.70
2018-06-02T23:59:27.029Z,94.90
